sensor_id;sensor_type;location;lat;lon;timestamp;temperature;humidity
2202;DHT22;1107;48.654;9.250;2022-08-07T00:00:31;16.60;99.90
2202;DHT22;1107;48.654;9.250;2022-08-07T00:02:58;16.60;99.90
2202;DHT22;1107;48.654;9.250;2022-08-07T00:05:26;16.70;99.90
2202;DHT22;1107;48.654;9.250;2022-08-07T00:07:54;16.50;99.90
2202;DHT22;1107;48.654;9.250;2022-08-07T00:10:23;16.60;99.90
2202;DHT22;1107;48.654;9.250;2022-08-07T00:12:50;16.50;99.90
2202;DHT22;1107;48.654;9.250;2022-08-07T00:15:17;16.50;99.90
2202;DHT22;1107;48.654;9.250;2022-08-07T00:17:44;16.50;99.90
2202;DHT22;1107;48.654;9.250;2022-08-07T00:20:12;16.30;99.90
2202;DHT22;1107;48.654;9.250;2022-08-07T00:22:39;16.40;99.90
2202;DHT22;1107;48.654;9.250;2022-08-07T00:25:09;16.30;99.90
2202;DHT22;1107;48.654;9.250;2022-08-07T00:27:38;16.40;99.90
2202;DHT22;1107;48.654;9.250;2022-08-07T00:30:06;16.40;99.90
2202;DHT22;1107;48.654;9.250;2022-08-07T00:32:33;16.30;99.90
2202;DHT22;1107;48.654;9.250;2022-08-07T00:35:00;16.20;99.90
2202;DHT22;1107;48.654;9.250;2022-08-07T00:37:28;16.30;99.90
2202;DHT22;1107;48.654;9.250;2022-08-07T00:39:55;16.30;99.90
2202;DHT22;1107;48.654;9.250;2022-08-07T00:42:22;16.50;99.90
2202;DHT22;1107;48.654;9.250;2022-08-07T00:44:51;16.40;92.80
2202;DHT22;1107;48.654;9.250;2022-08-07T00:47:18;16.40;91.20
2202;DHT22;1107;48.654;9.250;2022-08-07T00:49:45;16.50;85.30
2202;DHT22;1107;48.654;9.250;2022-08-07T00:52:12;16.60;85.60
2202;DHT22;1107;48.654;9.250;2022-08-07T00:54:40;16.60;79.90
2202;DHT22;1107;48.654;9.250;2022-08-07T00:57:07;16.60;84.10
2202;DHT22;1107;48.654;9.250;2022-08-07T00:59:35;16.70;71.30
2202;DHT22;1107;48.654;9.250;2022-08-07T01:02:05;16.60;71.10
2202;DHT22;1107;48.654;9.250;2022-08-07T01:04:32;16.60;68.00
2202;DHT22;1107;48.654;9.250;2022-08-07T01:07:00;16.50;68.10
2202;DHT22;1107;48.654;9.250;2022-08-07T01:09:27;16.50;74.60
2202;DHT22;1107;48.654;9.250;2022-08-07T01:11:54;16.60;77.20
2202;DHT22;1107;48.654;9.250;2022-08-07T01:14:22;16.50;71.60
2202;DHT22;1107;48.654;9.250;2022-08-07T01:16:51;16.40;77.50
2202;DHT22;1107;48.654;9.250;2022-08-07T01:19:21;16.40;80.90
2202;DHT22;1107;48.654;9.250;2022-08-07T01:21:50;16.30;83.20
2202;DHT22;1107;48.654;9.250;2022-08-07T01:24:18;16.20;94.00
2202;DHT22;1107;48.654;9.250;2022-08-07T01:26:46;16.10;96.40
2202;DHT22;1107;48.654;9.250;2022-08-07T01:29:13;16.10;99.90
2202;DHT22;1107;48.654;9.250;2022-08-07T01:31:40;16.00;99.90
2202;DHT22;1107;48.654;9.250;2022-08-07T01:34:07;16.00;99.90
2202;DHT22;1107;48.654;9.250;2022-08-07T01:36:35;16.00;99.90
2202;DHT22;1107;48.654;9.250;2022-08-07T01:39:04;15.90;99.90
2202;DHT22;1107;48.654;9.250;2022-08-07T01:41:31;15.80;99.90
2202;DHT22;1107;48.654;9.250;2022-08-07T01:43:59;15.80;99.90
2202;DHT22;1107;48.654;9.250;2022-08-07T01:46:26;15.80;99.90
2202;DHT22;1107;48.654;9.250;2022-08-07T01:48:53;15.80;99.90
2202;DHT22;1107;48.654;9.250;2022-08-07T01:51:21;15.70;99.90
2202;DHT22;1107;48.654;9.250;2022-08-07T01:53:50;15.70;99.90
2202;DHT22;1107;48.654;9.250;2022-08-07T01:56:24;15.70;99.90
2202;DHT22;1107;48.654;9.250;2022-08-07T01:58:54;15.70;99.90
2202;DHT22;1107;48.654;9.250;2022-08-07T02:01:26;15.60;99.90
2202;DHT22;1107;48.654;9.250;2022-08-07T02:03:57;15.60;99.90
2202;DHT22;1107;48.654;9.250;2022-08-07T02:06:26;15.50;99.90
2202;DHT22;1107;48.654;9.250;2022-08-07T02:08:56;15.40;99.90
2202;DHT22;1107;48.654;9.250;2022-08-07T02:11:27;15.30;99.90
2202;DHT22;1107;48.654;9.250;2022-08-07T02:13:55;15.30;99.90
2202;DHT22;1107;48.654;9.250;2022-08-07T02:16:24;15.30;99.90
2202;DHT22;1107;48.654;9.250;2022-08-07T02:18:52;15.20;99.90
2202;DHT22;1107;48.654;9.250;2022-08-07T02:21:20;15.20;99.90
2202;DHT22;1107;48.654;9.250;2022-08-07T02:23:48;15.20;99.90
2202;DHT22;1107;48.654;9.250;2022-08-07T02:26:16;15.10;99.90
2202;DHT22;1107;48.654;9.250;2022-08-07T02:28:46;15.10;99.90
2202;DHT22;1107;48.654;9.250;2022-08-07T02:31:14;15.10;99.90
2202;DHT22;1107;48.654;9.250;2022-08-07T02:33:41;15.00;99.90
2202;DHT22;1107;48.654;9.250;2022-08-07T02:36:09;15.00;99.90
2202;DHT22;1107;48.654;9.250;2022-08-07T02:38:37;15.00;99.90
2202;DHT22;1107;48.654;9.250;2022-08-07T02:41:05;15.00;99.90
2202;DHT22;1107;48.654;9.250;2022-08-07T02:43:34;15.00;99.90
2202;DHT22;1107;48.654;9.250;2022-08-07T02:46:04;15.00;99.90
2202;DHT22;1107;48.654;9.250;2022-08-07T02:48:31;15.00;99.90
2202;DHT22;1107;48.654;9.250;2022-08-07T02:51:04;15.00;99.90
2202;DHT22;1107;48.654;9.250;2022-08-07T02:53:34;14.90;99.90
2202;DHT22;1107;48.654;9.250;2022-08-07T02:56:04;14.90;99.90
2202;DHT22;1107;48.654;9.250;2022-08-07T02:58:33;14.80;99.90
2202;DHT22;1107;48.654;9.250;2022-08-07T03:01:02;14.90;99.90
2202;DHT22;1107;48.654;9.250;2022-08-07T03:03:31;14.80;99.90
2202;DHT22;1107;48.654;9.250;2022-08-07T03:06:00;14.80;99.90
2202;DHT22;1107;48.654;9.250;2022-08-07T03:08:28;14.80;99.90
2202;DHT22;1107;48.654;9.250;2022-08-07T03:10:55;14.80;99.90
2202;DHT22;1107;48.654;9.250;2022-08-07T03:13:23;14.80;99.90
2202;DHT22;1107;48.654;9.250;2022-08-07T03:15:52;14.80;99.90
2202;DHT22;1107;48.654;9.250;2022-08-07T03:18:21;14.80;99.90
2202;DHT22;1107;48.654;9.250;2022-08-07T03:20:49;14.80;99.90
2202;DHT22;1107;48.654;9.250;2022-08-07T03:23:17;14.80;99.90
2202;DHT22;1107;48.654;9.250;2022-08-07T03:25:45;14.80;99.90
2202;DHT22;1107;48.654;9.250;2022-08-07T03:28:15;14.80;99.90
2202;DHT22;1107;48.654;9.250;2022-08-07T03:30:44;14.70;99.90
2202;DHT22;1107;48.654;9.250;2022-08-07T03:33:12;14.70;99.90
2202;DHT22;1107;48.654;9.250;2022-08-07T03:35:41;14.70;99.90
2202;DHT22;1107;48.654;9.250;2022-08-07T03:38:10;14.70;99.90
2202;DHT22;1107;48.654;9.250;2022-08-07T03:40:39;14.70;99.90
2202;DHT22;1107;48.654;9.250;2022-08-07T03:43:07;14.70;99.90
2202;DHT22;1107;48.654;9.250;2022-08-07T03:45:34;14.70;99.90
2202;DHT22;1107;48.654;9.250;2022-08-07T03:48:01;14.70;99.90
2202;DHT22;1107;48.654;9.250;2022-08-07T03:50:28;14.70;99.90
2202;DHT22;1107;48.654;9.250;2022-08-07T03:52:58;14.70;99.90
2202;DHT22;1107;48.654;9.250;2022-08-07T03:55:27;14.80;99.90
2202;DHT22;1107;48.654;9.250;2022-08-07T03:57:54;14.80;99.90
2202;DHT22;1107;48.654;9.250;2022-08-07T04:00:23;14.70;1.00
2202;DHT22;1107;48.654;9.250;2022-08-07T04:02:51;14.60;1.00
2202;DHT22;1107;48.654;9.250;2022-08-07T04:05:19;14.60;1.00
2202;DHT22;1107;48.654;9.250;2022-08-07T04:07:47;14.60;1.00
2202;DHT22;1107;48.654;9.250;2022-08-07T04:10:16;14.60;1.00
2202;DHT22;1107;48.654;9.250;2022-08-07T04:12:44;14.60;1.00
2202;DHT22;1107;48.654;9.250;2022-08-07T04:15:11;14.60;1.00
2202;DHT22;1107;48.654;9.250;2022-08-07T04:17:41;14.50;1.00
2202;DHT22;1107;48.654;9.250;2022-08-07T04:20:10;14.60;1.00
2202;DHT22;1107;48.654;9.250;2022-08-07T04:22:38;14.60;1.00
2202;DHT22;1107;48.654;9.250;2022-08-07T04:25:06;14.50;1.00
2202;DHT22;1107;48.654;9.250;2022-08-07T04:27:35;14.50;1.00
2202;DHT22;1107;48.654;9.250;2022-08-07T04:30:03;14.60;1.00
2202;DHT22;1107;48.654;9.250;2022-08-07T04:32:32;14.70;1.00
2202;DHT22;1107;48.654;9.250;2022-08-07T04:35:01;14.90;1.00
2202;DHT22;1107;48.654;9.250;2022-08-07T04:37:28;15.00;1.00
2202;DHT22;1107;48.654;9.250;2022-08-07T04:39:56;15.10;1.00
2202;DHT22;1107;48.654;9.250;2022-08-07T04:42:23;15.00;1.00
2202;DHT22;1107;48.654;9.250;2022-08-07T04:44:57;15.10;1.00
2202;DHT22;1107;48.654;9.250;2022-08-07T04:47:30;15.10;1.00
2202;DHT22;1107;48.654;9.250;2022-08-07T04:50:05;15.10;1.00
2202;DHT22;1107;48.654;9.250;2022-08-07T04:52:40;15.20;1.00
2202;DHT22;1107;48.654;9.250;2022-08-07T04:55:15;15.30;1.00
2202;DHT22;1107;48.654;9.250;2022-08-07T04:57:50;15.50;1.00
2202;DHT22;1107;48.654;9.250;2022-08-07T05:00:24;15.60;99.90
2202;DHT22;1107;48.654;9.250;2022-08-07T05:02:55;15.70;99.90
2202;DHT22;1107;48.654;9.250;2022-08-07T05:05:30;15.80;99.90
2202;DHT22;1107;48.654;9.250;2022-08-07T05:08:05;16.00;99.90
2202;DHT22;1107;48.654;9.250;2022-08-07T05:10:37;16.20;99.90
2202;DHT22;1107;48.654;9.250;2022-08-07T05:13:08;16.30;99.90
2202;DHT22;1107;48.654;9.250;2022-08-07T05:15:41;16.40;99.90
2202;DHT22;1107;48.654;9.250;2022-08-07T05:18:19;16.60;99.90
2202;DHT22;1107;48.654;9.250;2022-08-07T05:20:52;16.70;99.90
2202;DHT22;1107;48.654;9.250;2022-08-07T05:23:35;16.80;99.90
2202;DHT22;1107;48.654;9.250;2022-08-07T05:26:04;16.90;99.90
2202;DHT22;1107;48.654;9.250;2022-08-07T05:28:34;17.10;99.90
2202;DHT22;1107;48.654;9.250;2022-08-07T05:31:02;17.40;99.90
2202;DHT22;1107;48.654;9.250;2022-08-07T05:33:30;17.50;99.90
2202;DHT22;1107;48.654;9.250;2022-08-07T05:36:00;17.80;99.90
2202;DHT22;1107;48.654;9.250;2022-08-07T05:38:28;17.90;99.90
2202;DHT22;1107;48.654;9.250;2022-08-07T05:40:56;18.00;99.90
2202;DHT22;1107;48.654;9.250;2022-08-07T05:43:23;18.20;99.90
2202;DHT22;1107;48.654;9.250;2022-08-07T05:45:50;18.20;99.90
2202;DHT22;1107;48.654;9.250;2022-08-07T05:48:20;18.20;99.90
2202;DHT22;1107;48.654;9.250;2022-08-07T05:50:47;18.30;99.90
2202;DHT22;1107;48.654;9.250;2022-08-07T05:53:15;18.50;99.90
2202;DHT22;1107;48.654;9.250;2022-08-07T05:55:42;18.60;99.90
2202;DHT22;1107;48.654;9.250;2022-08-07T05:58:11;18.70;99.90
2202;DHT22;1107;48.654;9.250;2022-08-07T06:00:38;18.80;99.90
2202;DHT22;1107;48.654;9.250;2022-08-07T06:03:08;19.00;99.90
2202;DHT22;1107;48.654;9.250;2022-08-07T06:05:37;19.20;99.90
2202;DHT22;1107;48.654;9.250;2022-08-07T06:08:05;19.40;99.90
2202;DHT22;1107;48.654;9.250;2022-08-07T06:10:32;19.60;99.90
2202;DHT22;1107;48.654;9.250;2022-08-07T06:13:00;19.70;99.90
2202;DHT22;1107;48.654;9.250;2022-08-07T06:15:28;20.00;99.90
2202;DHT22;1107;48.654;9.250;2022-08-07T06:17:56;20.10;99.90
2202;DHT22;1107;48.654;9.250;2022-08-07T06:20:24;20.30;99.90
2202;DHT22;1107;48.654;9.250;2022-08-07T06:22:53;20.50;99.90
2202;DHT22;1107;48.654;9.250;2022-08-07T06:25:21;20.40;99.90
2202;DHT22;1107;48.654;9.250;2022-08-07T06:27:48;20.60;99.90
2202;DHT22;1107;48.654;9.250;2022-08-07T06:30:15;20.60;99.90
2202;DHT22;1107;48.654;9.250;2022-08-07T06:32:42;20.70;99.90
2202;DHT22;1107;48.654;9.250;2022-08-07T06:35:09;20.90;99.90
2202;DHT22;1107;48.654;9.250;2022-08-07T06:37:36;21.00;99.90
2202;DHT22;1107;48.654;9.250;2022-08-07T06:40:06;21.30;99.90
2202;DHT22;1107;48.654;9.250;2022-08-07T06:42:35;21.50;99.90
2202;DHT22;1107;48.654;9.250;2022-08-07T06:45:07;21.70;99.90
2202;DHT22;1107;48.654;9.250;2022-08-07T06:47:36;21.80;99.90
2202;DHT22;1107;48.654;9.250;2022-08-07T06:50:04;22.00;99.90
2202;DHT22;1107;48.654;9.250;2022-08-07T06:52:35;22.00;99.90
2202;DHT22;1107;48.654;9.250;2022-08-07T06:55:09;21.90;99.90
2202;DHT22;1107;48.654;9.250;2022-08-07T06:57:37;22.00;99.90
2202;DHT22;1107;48.654;9.250;2022-08-07T07:00:06;22.10;99.90
2202;DHT22;1107;48.654;9.250;2022-08-07T07:02:33;22.20;99.90
2202;DHT22;1107;48.654;9.250;2022-08-07T07:05:02;22.20;99.90
2202;DHT22;1107;48.654;9.250;2022-08-07T07:07:29;22.10;99.90
2202;DHT22;1107;48.654;9.250;2022-08-07T07:09:56;22.00;99.90
2202;DHT22;1107;48.654;9.250;2022-08-07T07:12:36;22.10;99.90
2202;DHT22;1107;48.654;9.250;2022-08-07T07:15:10;22.10;99.90
2202;DHT22;1107;48.654;9.250;2022-08-07T07:17:42;22.40;99.90
2202;DHT22;1107;48.654;9.250;2022-08-07T07:20:15;22.60;99.90
2202;DHT22;1107;48.654;9.250;2022-08-07T07:22:43;22.70;99.90
2202;DHT22;1107;48.654;9.250;2022-08-07T07:25:12;23.00;99.90
2202;DHT22;1107;48.654;9.250;2022-08-07T07:27:46;23.30;99.90
2202;DHT22;1107;48.654;9.250;2022-08-07T07:30:14;23.30;99.90
2202;DHT22;1107;48.654;9.250;2022-08-07T07:32:43;23.30;99.90
2202;DHT22;1107;48.654;9.250;2022-08-07T07:35:11;23.80;99.90
2202;DHT22;1107;48.654;9.250;2022-08-07T07:37:41;23.80;99.90
2202;DHT22;1107;48.654;9.250;2022-08-07T07:40:14;24.10;99.90
2202;DHT22;1107;48.654;9.250;2022-08-07T07:42:44;24.10;99.90
2202;DHT22;1107;48.654;9.250;2022-08-07T07:45:14;24.20;98.40
2202;DHT22;1107;48.654;9.250;2022-08-07T07:47:43;24.50;90.70
2202;DHT22;1107;48.654;9.250;2022-08-07T07:50:11;24.70;75.00
2202;DHT22;1107;48.654;9.250;2022-08-07T07:52:40;25.00;69.30
2202;DHT22;1107;48.654;9.250;2022-08-07T07:55:09;24.80;57.90
2202;DHT22;1107;48.654;9.250;2022-08-07T07:57:36;24.90;53.40
2202;DHT22;1107;48.654;9.250;2022-08-07T08:00:08;24.90;46.80
2202;DHT22;1107;48.654;9.250;2022-08-07T08:02:37;25.00;36.90
2202;DHT22;1107;48.654;9.250;2022-08-07T08:05:09;25.00;29.70
2202;DHT22;1107;48.654;9.250;2022-08-07T08:07:37;25.10;26.90
2202;DHT22;1107;48.654;9.250;2022-08-07T08:10:07;25.50;19.20
2202;DHT22;1107;48.654;9.250;2022-08-07T08:12:34;25.70;13.50
2202;DHT22;1107;48.654;9.250;2022-08-07T08:15:02;26.20;10.40
2202;DHT22;1107;48.654;9.250;2022-08-07T08:17:34;26.30;5.70
2202;DHT22;1107;48.654;9.250;2022-08-07T08:20:03;26.30;1.00
2202;DHT22;1107;48.654;9.250;2022-08-07T08:22:33;26.20;1.00
2202;DHT22;1107;48.654;9.250;2022-08-07T08:25:19;26.30;1.00
2202;DHT22;1107;48.654;9.250;2022-08-07T08:28:08;26.40;1.00
2202;DHT22;1107;48.654;9.250;2022-08-07T08:30:37;26.70;1.00
2202;DHT22;1107;48.654;9.250;2022-08-07T08:33:08;27.10;1.00
2202;DHT22;1107;48.654;9.250;2022-08-07T08:35:41;26.80;1.00
2202;DHT22;1107;48.654;9.250;2022-08-07T08:38:11;26.60;1.00
2202;DHT22;1107;48.654;9.250;2022-08-07T08:40:43;26.80;1.00
2202;DHT22;1107;48.654;9.250;2022-08-07T08:43:18;26.60;1.00
2202;DHT22;1107;48.654;9.250;2022-08-07T08:45:51;26.90;1.00
2202;DHT22;1107;48.654;9.250;2022-08-07T08:48:29;27.50;1.00
2202;DHT22;1107;48.654;9.250;2022-08-07T08:51:01;27.60;1.00
2202;DHT22;1107;48.654;9.250;2022-08-07T08:53:34;28.00;1.00
2202;DHT22;1107;48.654;9.250;2022-08-07T08:56:07;28.10;1.00
2202;DHT22;1107;48.654;9.250;2022-08-07T08:58:41;28.00;1.00
2202;DHT22;1107;48.654;9.250;2022-08-07T09:01:12;27.80;1.00
2202;DHT22;1107;48.654;9.250;2022-08-07T09:03:53;27.80;1.00
2202;DHT22;1107;48.654;9.250;2022-08-07T09:06:32;27.80;1.00
2202;DHT22;1107;48.654;9.250;2022-08-07T09:09:05;28.20;1.00
2202;DHT22;1107;48.654;9.250;2022-08-07T09:11:38;28.00;1.00
2202;DHT22;1107;48.654;9.250;2022-08-07T09:14:11;28.60;1.00
2202;DHT22;1107;48.654;9.250;2022-08-07T09:16:52;28.90;1.00
2202;DHT22;1107;48.654;9.250;2022-08-07T09:19:29;29.10;1.00
2202;DHT22;1107;48.654;9.250;2022-08-07T09:22:09;29.60;1.00
2202;DHT22;1107;48.654;9.250;2022-08-07T09:24:46;30.20;1.00
2202;DHT22;1107;48.654;9.250;2022-08-07T09:27:28;29.70;1.00
2202;DHT22;1107;48.654;9.250;2022-08-07T09:30:03;29.40;1.00
2202;DHT22;1107;48.654;9.250;2022-08-07T09:32:56;29.80;1.00
2202;DHT22;1107;48.654;9.250;2022-08-07T09:35:35;30.00;1.00
2202;DHT22;1107;48.654;9.250;2022-08-07T09:38:11;29.60;1.00
2202;DHT22;1107;48.654;9.250;2022-08-07T09:40:53;29.40;1.00
2202;DHT22;1107;48.654;9.250;2022-08-07T09:43:30;29.10;1.00
2202;DHT22;1107;48.654;9.250;2022-08-07T09:46:10;29.20;1.00
2202;DHT22;1107;48.654;9.250;2022-08-07T09:48:45;29.50;1.00
2202;DHT22;1107;48.654;9.250;2022-08-07T09:51:30;30.00;1.00
2202;DHT22;1107;48.654;9.250;2022-08-07T09:54:02;30.40;1.00
2202;DHT22;1107;48.654;9.250;2022-08-07T09:56:57;30.50;1.00
2202;DHT22;1107;48.654;9.250;2022-08-07T10:00:02;30.70;1.00
2202;DHT22;1107;48.654;9.250;2022-08-07T10:05:54;31.50;1.00
2202;DHT22;1107;48.654;9.250;2022-08-07T10:08:43;31.50;1.00
2202;DHT22;1107;48.654;9.250;2022-08-07T10:11:26;31.20;1.00
2202;DHT22;1107;48.654;9.250;2022-08-07T10:14:05;31.20;1.00
2202;DHT22;1107;48.654;9.250;2022-08-07T10:16:47;30.90;1.00
2202;DHT22;1107;48.654;9.250;2022-08-07T10:19:29;30.50;1.00
2202;DHT22;1107;48.654;9.250;2022-08-07T10:25:15;30.70;1.00
2202;DHT22;1107;48.654;9.250;2022-08-07T10:27:56;30.70;1.00
2202;DHT22;1107;48.654;9.250;2022-08-07T10:30:31;30.40;1.00
2202;DHT22;1107;48.654;9.250;2022-08-07T10:33:10;29.60;1.00
2202;DHT22;1107;48.654;9.250;2022-08-07T10:35:52;29.30;1.00
2202;DHT22;1107;48.654;9.250;2022-08-07T10:38:36;28.90;1.00
2202;DHT22;1107;48.654;9.250;2022-08-07T10:41:11;28.50;1.00
2202;DHT22;1107;48.654;9.250;2022-08-07T10:43:46;28.40;1.00
2202;DHT22;1107;48.654;9.250;2022-08-07T10:46:17;28.20;1.00
2202;DHT22;1107;48.654;9.250;2022-08-07T10:48:54;28.50;1.00
2202;DHT22;1107;48.654;9.250;2022-08-07T10:51:34;28.60;1.00
2202;DHT22;1107;48.654;9.250;2022-08-07T10:54:10;28.80;1.00
2202;DHT22;1107;48.654;9.250;2022-08-07T10:56:45;28.60;1.00
2202;DHT22;1107;48.654;9.250;2022-08-07T10:59:25;28.40;1.00
2202;DHT22;1107;48.654;9.250;2022-08-07T11:01:59;28.30;1.00
2202;DHT22;1107;48.654;9.250;2022-08-07T11:04:39;28.40;1.00
2202;DHT22;1107;48.654;9.250;2022-08-07T11:07:19;28.70;1.00
2202;DHT22;1107;48.654;9.250;2022-08-07T11:09:53;28.30;1.00
2202;DHT22;1107;48.654;9.250;2022-08-07T11:12:27;28.60;1.00
2202;DHT22;1107;48.654;9.250;2022-08-07T11:15:01;28.60;1.00
2202;DHT22;1107;48.654;9.250;2022-08-07T11:17:32;28.30;1.00
2202;DHT22;1107;48.654;9.250;2022-08-07T11:20:03;28.40;1.00
2202;DHT22;1107;48.654;9.250;2022-08-07T11:22:34;28.50;1.00
2202;DHT22;1107;48.654;9.250;2022-08-07T11:25:10;28.40;1.00
2202;DHT22;1107;48.654;9.250;2022-08-07T11:27:47;28.40;1.00
2202;DHT22;1107;48.654;9.250;2022-08-07T11:30:17;28.30;1.00
2202;DHT22;1107;48.654;9.250;2022-08-07T11:32:50;28.40;1.00
2202;DHT22;1107;48.654;9.250;2022-08-07T11:35:20;28.50;1.00
2202;DHT22;1107;48.654;9.250;2022-08-07T11:38:07;28.80;1.00
2202;DHT22;1107;48.654;9.250;2022-08-07T11:40:42;29.20;1.00
2202;DHT22;1107;48.654;9.250;2022-08-07T11:43:18;29.50;1.00
2202;DHT22;1107;48.654;9.250;2022-08-07T11:45:59;29.40;1.00
2202;DHT22;1107;48.654;9.250;2022-08-07T11:48:45;29.30;1.00
2202;DHT22;1107;48.654;9.250;2022-08-07T11:51:27;29.50;1.00
2202;DHT22;1107;48.654;9.250;2022-08-07T11:54:11;29.10;1.00
2202;DHT22;1107;48.654;9.250;2022-08-07T11:56:51;29.10;1.00
2202;DHT22;1107;48.654;9.250;2022-08-07T11:59:44;29.10;1.00
2202;DHT22;1107;48.654;9.250;2022-08-07T12:02:25;29.20;1.00
2202;DHT22;1107;48.654;9.250;2022-08-07T12:05:04;29.20;1.00
2202;DHT22;1107;48.654;9.250;2022-08-07T12:07:36;29.00;1.00
2202;DHT22;1107;48.654;9.250;2022-08-07T12:10:08;29.50;1.00
2202;DHT22;1107;48.654;9.250;2022-08-07T12:12:42;29.40;1.00
2202;DHT22;1107;48.654;9.250;2022-08-07T12:15:16;29.60;1.00
2202;DHT22;1107;48.654;9.250;2022-08-07T12:17:48;29.40;1.00
2202;DHT22;1107;48.654;9.250;2022-08-07T12:20:22;29.40;1.00
2202;DHT22;1107;48.654;9.250;2022-08-07T12:23:02;29.40;1.00
2202;DHT22;1107;48.654;9.250;2022-08-07T12:25:38;29.80;1.00
2202;DHT22;1107;48.654;9.250;2022-08-07T12:28:25;30.00;1.00
2202;DHT22;1107;48.654;9.250;2022-08-07T12:30:58;29.90;1.00
2202;DHT22;1107;48.654;9.250;2022-08-07T12:33:30;29.90;1.00
2202;DHT22;1107;48.654;9.250;2022-08-07T12:35:59;29.70;1.00
2202;DHT22;1107;48.654;9.250;2022-08-07T12:38:28;29.40;1.00
2202;DHT22;1107;48.654;9.250;2022-08-07T12:40:58;29.30;1.00
2202;DHT22;1107;48.654;9.250;2022-08-07T12:43:29;29.50;1.00
2202;DHT22;1107;48.654;9.250;2022-08-07T12:46:08;29.40;1.00
2202;DHT22;1107;48.654;9.250;2022-08-07T12:48:44;29.40;1.00
2202;DHT22;1107;48.654;9.250;2022-08-07T12:51:16;29.50;1.00
2202;DHT22;1107;48.654;9.250;2022-08-07T12:53:50;29.60;1.00
2202;DHT22;1107;48.654;9.250;2022-08-07T12:56:25;29.80;1.00
2202;DHT22;1107;48.654;9.250;2022-08-07T12:58:55;30.30;1.00
2202;DHT22;1107;48.654;9.250;2022-08-07T13:01:41;30.30;1.00
2202;DHT22;1107;48.654;9.250;2022-08-07T13:04:43;30.30;1.00
2202;DHT22;1107;48.654;9.250;2022-08-07T13:10:24;30.10;1.00
2202;DHT22;1107;48.654;9.250;2022-08-07T13:13:26;30.20;1.00
2202;DHT22;1107;48.654;9.250;2022-08-07T13:15:59;30.20;1.00
2202;DHT22;1107;48.654;9.250;2022-08-07T13:18:38;29.80;1.00
2202;DHT22;1107;48.654;9.250;2022-08-07T13:21:13;30.10;1.00
2202;DHT22;1107;48.654;9.250;2022-08-07T13:23:47;30.20;1.00
2202;DHT22;1107;48.654;9.250;2022-08-07T13:26:21;30.30;1.00
2202;DHT22;1107;48.654;9.250;2022-08-07T13:28:58;30.60;1.00
2202;DHT22;1107;48.654;9.250;2022-08-07T13:31:30;30.70;1.00
2202;DHT22;1107;48.654;9.250;2022-08-07T13:34:07;30.90;1.00
2202;DHT22;1107;48.654;9.250;2022-08-07T13:36:41;30.40;1.00
2202;DHT22;1107;48.654;9.250;2022-08-07T13:39:16;30.00;1.00
2202;DHT22;1107;48.654;9.250;2022-08-07T13:41:49;29.90;1.00
2202;DHT22;1107;48.654;9.250;2022-08-07T13:44:20;30.00;1.00
2202;DHT22;1107;48.654;9.250;2022-08-07T13:46:50;29.60;1.00
2202;DHT22;1107;48.654;9.250;2022-08-07T13:49:21;29.40;1.00
2202;DHT22;1107;48.654;9.250;2022-08-07T13:51:49;29.50;1.00
2202;DHT22;1107;48.654;9.250;2022-08-07T13:54:20;29.40;1.00
2202;DHT22;1107;48.654;9.250;2022-08-07T13:56:56;29.50;1.00
2202;DHT22;1107;48.654;9.250;2022-08-07T13:59:26;29.80;1.00
2202;DHT22;1107;48.654;9.250;2022-08-07T14:01:59;30.10;1.00
2202;DHT22;1107;48.654;9.250;2022-08-07T14:04:37;30.10;1.00
2202;DHT22;1107;48.654;9.250;2022-08-07T14:07:11;30.30;1.00
2202;DHT22;1107;48.654;9.250;2022-08-07T14:09:39;30.50;1.00
2202;DHT22;1107;48.654;9.250;2022-08-07T14:12:12;30.90;1.00
2202;DHT22;1107;48.654;9.250;2022-08-07T14:14:42;31.00;1.00
2202;DHT22;1107;48.654;9.250;2022-08-07T14:17:14;30.90;1.00
2202;DHT22;1107;48.654;9.250;2022-08-07T14:19:48;30.40;1.00
2202;DHT22;1107;48.654;9.250;2022-08-07T14:22:22;30.20;1.00
2202;DHT22;1107;48.654;9.250;2022-08-07T14:24:58;30.00;1.00
2202;DHT22;1107;48.654;9.250;2022-08-07T14:27:31;30.10;1.00
2202;DHT22;1107;48.654;9.250;2022-08-07T14:30:03;30.30;1.00
2202;DHT22;1107;48.654;9.250;2022-08-07T14:32:36;30.20;1.00
2202;DHT22;1107;48.654;9.250;2022-08-07T14:35:07;30.10;1.00
2202;DHT22;1107;48.654;9.250;2022-08-07T14:37:35;30.10;1.00
2202;DHT22;1107;48.654;9.250;2022-08-07T14:40:06;29.90;1.00
2202;DHT22;1107;48.654;9.250;2022-08-07T14:42:38;29.70;1.00
2202;DHT22;1107;48.654;9.250;2022-08-07T14:45:09;29.70;1.00
2202;DHT22;1107;48.654;9.250;2022-08-07T14:47:38;29.60;1.00
2202;DHT22;1107;48.654;9.250;2022-08-07T14:50:09;29.50;1.00
2202;DHT22;1107;48.654;9.250;2022-08-07T14:52:43;29.50;1.00
2202;DHT22;1107;48.654;9.250;2022-08-07T14:55:12;29.30;1.00
2202;DHT22;1107;48.654;9.250;2022-08-07T14:57:40;29.00;1.00
2202;DHT22;1107;48.654;9.250;2022-08-07T15:00:09;28.80;1.00
2202;DHT22;1107;48.654;9.250;2022-08-07T15:02:38;28.70;1.00
2202;DHT22;1107;48.654;9.250;2022-08-07T15:05:06;28.60;1.00
2202;DHT22;1107;48.654;9.250;2022-08-07T15:07:35;28.50;1.00
2202;DHT22;1107;48.654;9.250;2022-08-07T15:10:03;28.50;1.00
2202;DHT22;1107;48.654;9.250;2022-08-07T15:12:34;28.40;1.00
2202;DHT22;1107;48.654;9.250;2022-08-07T15:15:06;28.40;1.00
2202;DHT22;1107;48.654;9.250;2022-08-07T15:17:39;28.20;1.00
2202;DHT22;1107;48.654;9.250;2022-08-07T15:20:09;28.30;1.00
2202;DHT22;1107;48.654;9.250;2022-08-07T15:22:45;27.90;1.00
2202;DHT22;1107;48.654;9.250;2022-08-07T15:25:15;27.90;1.00
2202;DHT22;1107;48.654;9.250;2022-08-07T15:27:44;27.80;1.00
2202;DHT22;1107;48.654;9.250;2022-08-07T15:30:13;27.40;1.00
2202;DHT22;1107;48.654;9.250;2022-08-07T15:32:42;27.20;1.00
2202;DHT22;1107;48.654;9.250;2022-08-07T15:35:14;27.10;1.00
2202;DHT22;1107;48.654;9.250;2022-08-07T15:37:48;27.10;1.00
2202;DHT22;1107;48.654;9.250;2022-08-07T15:40:17;26.80;1.00
2202;DHT22;1107;48.654;9.250;2022-08-07T15:42:52;26.70;1.00
2202;DHT22;1107;48.654;9.250;2022-08-07T15:45:29;26.70;1.00
2202;DHT22;1107;48.654;9.250;2022-08-07T15:47:59;26.90;1.00
2202;DHT22;1107;48.654;9.250;2022-08-07T15:50:29;27.20;1.00
2202;DHT22;1107;48.654;9.250;2022-08-07T15:53:03;27.40;1.00
2202;DHT22;1107;48.654;9.250;2022-08-07T15:55:32;27.50;1.00
2202;DHT22;1107;48.654;9.250;2022-08-07T15:58:02;27.30;1.00
2202;DHT22;1107;48.654;9.250;2022-08-07T16:00:33;27.10;1.00
2202;DHT22;1107;48.654;9.250;2022-08-07T16:03:04;27.10;1.00
2202;DHT22;1107;48.654;9.250;2022-08-07T16:05:32;27.10;1.00
2202;DHT22;1107;48.654;9.250;2022-08-07T16:08:06;27.10;1.00
2202;DHT22;1107;48.654;9.250;2022-08-07T16:10:36;27.00;1.00
2202;DHT22;1107;48.654;9.250;2022-08-07T16:13:32;26.90;1.00
2202;DHT22;1107;48.654;9.250;2022-08-07T16:16:07;26.90;1.00
2202;DHT22;1107;48.654;9.250;2022-08-07T16:18:43;26.70;1.00
2202;DHT22;1107;48.654;9.250;2022-08-07T16:21:19;26.70;1.00
2202;DHT22;1107;48.654;9.250;2022-08-07T16:23:59;26.70;1.00
2202;DHT22;1107;48.654;9.250;2022-08-07T16:26:37;26.60;1.00
2202;DHT22;1107;48.654;9.250;2022-08-07T16:29:20;26.60;1.00
2202;DHT22;1107;48.654;9.250;2022-08-07T16:31:55;26.50;1.00
2202;DHT22;1107;48.654;9.250;2022-08-07T16:34:30;26.50;1.00
2202;DHT22;1107;48.654;9.250;2022-08-07T16:37:24;26.40;1.00
2202;DHT22;1107;48.654;9.250;2022-08-07T16:40:16;26.30;1.00
2202;DHT22;1107;48.654;9.250;2022-08-07T16:42:58;26.20;1.00
2202;DHT22;1107;48.654;9.250;2022-08-07T16:45:53;26.10;1.00
2202;DHT22;1107;48.654;9.250;2022-08-07T16:48:42;26.20;1.00
2202;DHT22;1107;48.654;9.250;2022-08-07T16:51:19;26.30;1.00